Shovel Lake, Minnesota
Current Conditions -  °F | °C
As of 4:55 PM on Saturday 20 Dec 2014 (Local Time) from KGPZ Reporting Station
Overcast Overcast  
Wind Chill: 18°   Ceiling: 600
Heat Index: 28°   Visibility: 5mi
Dew Point: 27°   Wind: 13mph
Humidity: 93%   Direction: 180°S
Pressure: 30.02"   Gusts: 16mph
Location:  46.9367°N, 93.6827°W
Report Text: KGPZ 202255Z AUTO 18011G14KT 5SM OVC006 M02/M03 A3002 RMK AO1
Loading
Personal Weather Stations






























Interactive Weather Map New forecast layout! Learn more

10-Day Weather Forecast

Advertisements
Track Severe Weather on mobile